createdAt,value
2022-12-01T00:01:16.457Z,28.92
2022-12-01T00:03:44.600Z,27.20
2022-12-01T00:06:15.502Z,27.70
2022-12-01T00:09:04.479Z,27.30
2022-12-01T00:11:31.604Z,28.23
2022-12-01T00:14:01.011Z,27.13
2022-12-01T00:16:28.949Z,27.95
2022-12-01T00:18:57.082Z,27.17
2022-12-01T00:21:26.640Z,28.27
2022-12-01T00:23:56.288Z,26.65
2022-12-01T00:26:25.143Z,27.25
2022-12-01T00:28:53.772Z,25.50
2022-12-01T00:31:23.648Z,26.42
2022-12-01T00:33:51.587Z,27.25
2022-12-01T00:36:19.525Z,26.38
2022-12-01T00:38:47.457Z,25.65
2022-12-01T00:41:15.305Z,26.80
2022-12-01T00:43:43.334Z,25.27
2022-12-01T00:46:11.229Z,24.58
2022-12-01T00:48:40.574Z,26.65
2022-12-01T00:51:08.422Z,25.40
2022-12-01T00:53:36.337Z,25.80
2022-12-01T00:56:04.360Z,22.63
2022-12-01T00:58:32.170Z,24.85
2022-12-01T01:01:01.151Z,24.40
2022-12-01T01:03:30.014Z,24.55
2022-12-01T01:06:05.298Z,25.80
2022-12-01T01:08:33.462Z,22.20
2022-12-01T01:11:01.696Z,25.27
2022-12-01T01:13:30.398Z,25.50
2022-12-01T01:15:59.898Z,25.52
2022-12-01T01:18:28.001Z,21.10
2022-12-01T01:21:01.388Z,24.88
2022-12-01T01:23:29.322Z,19.08
2022-12-01T01:26:03.265Z,22.73
2022-12-01T01:28:31.367Z,22.05
2022-12-01T01:30:59.582Z,20.20
2022-12-01T01:33:27.752Z,20.17
2022-12-01T01:36:01.199Z,21.10
2022-12-01T01:38:29.618Z,20.88
2022-12-01T01:40:57.654Z,20.63
2022-12-01T01:43:44.050Z,19.73
2022-12-01T01:46:13.416Z,19.98
2022-12-01T01:48:42.490Z,18.05
2022-12-01T01:51:12.686Z,15.95
2022-12-01T01:53:40.542Z,18.60
2022-12-01T01:56:09.430Z,18.60
2022-12-01T01:58:38.304Z,17.02
2022-12-01T02:01:07.438Z,16.95
2022-12-01T02:03:36.991Z,17.85
2022-12-01T02:06:05.648Z,17.98
2022-12-01T02:08:36.423Z,16.63
2022-12-01T02:11:19.546Z,18.08
2022-12-01T02:13:54.404Z,18.00
2022-12-01T02:16:28.878Z,17.33
2022-12-01T02:19:00.393Z,14.65
2022-12-01T02:21:39.740Z,17.65
2022-12-01T02:25:01.341Z,16.63
2022-12-01T02:27:41.392Z,16.70
2022-12-01T02:30:11.704Z,16.92
2022-12-01T02:32:56.092Z,17.17
2022-12-01T02:35:28.757Z,17.60
2022-12-01T02:38:05.461Z,18.25
2022-12-01T02:40:37.818Z,16.70
2022-12-01T02:43:09.541Z,18.08
2022-12-01T02:45:42.133Z,18.95
2022-12-01T02:48:14.410Z,18.95
2022-12-01T02:50:42.995Z,20.27
2022-12-01T02:53:14.408Z,19.13
2022-12-01T02:55:48.792Z,19.15
2022-12-01T02:58:16.683Z,19.67
2022-12-01T03:00:54.463Z,19.30
2022-12-01T03:03:33.766Z,19.33
2022-12-01T03:06:08.428Z,17.88
2022-12-01T03:08:46.098Z,19.52
2022-12-01T03:11:27.203Z,20.17
2022-12-01T03:14:02.553Z,19.63
2022-12-01T03:16:35.080Z,20.52
2022-12-01T03:19:07.972Z,17.65
2022-12-01T03:21:40.551Z,18.05
2022-12-01T03:24:11.537Z,18.17
2022-12-01T03:26:42.440Z,17.50
2022-12-01T03:29:12.726Z,16.58
2022-12-01T03:31:46.625Z,16.77
2022-12-01T03:34:19.045Z,15.82
2022-12-01T03:36:50.330Z,17.55
2022-12-01T03:39:22.017Z,17.48
2022-12-01T03:41:53.867Z,17.40
2022-12-01T03:44:23.277Z,17.13
2022-12-01T03:46:54.802Z,17.88
2022-12-01T03:49:25.622Z,16.45
2022-12-01T03:51:59.228Z,18.52
2022-12-01T03:54:32.327Z,17.95
2022-12-01T03:57:07.020Z,18.08
2022-12-01T03:59:36.920Z,21.27
2022-12-01T04:02:06.699Z,18.13
2022-12-01T04:04:36.122Z,19.15
2022-12-01T04:07:04.248Z,18.88
2022-12-01T04:09:32.062Z,19.15
2022-12-01T04:12:17.273Z,17.52
2022-12-01T04:14:45.112Z,19.50
2022-12-01T04:17:12.934Z,17.85
2022-12-01T04:19:42.102Z,18.60
2022-12-01T04:22:09.891Z,18.92
2022-12-01T04:24:37.735Z,19.52
2022-12-01T04:27:05.625Z,18.08
2022-12-01T04:29:33.482Z,19.83
2022-12-01T04:32:01.358Z,17.02
2022-12-01T04:34:29.189Z,18.05
2022-12-01T04:36:58.508Z,18.52
2022-12-01T04:39:26.391Z,18.85
2022-12-01T04:41:54.282Z,18.40
2022-12-01T04:44:22.112Z,16.38
2022-12-01T04:46:49.986Z,18.38
2022-12-01T04:49:17.947Z,18.33
2022-12-01T04:51:45.823Z,18.23
2022-12-01T04:54:15.625Z,17.63
2022-12-01T04:56:43.802Z,18.95
2022-12-01T04:59:11.983Z,18.80
2022-12-01T05:01:40.367Z,19.65
2022-12-01T05:04:08.341Z,20.02
2022-12-01T05:06:36.181Z,19.20
2022-12-01T05:09:04.131Z,19.80
2022-12-01T05:11:33.858Z,18.00
2022-12-01T05:14:02.134Z,18.83
2022-12-01T05:16:31.845Z,19.58
2022-12-01T05:19:18.784Z,19.83
2022-12-01T05:21:47.514Z,17.48
2022-12-01T05:24:16.247Z,18.50
2022-12-01T05:26:45.769Z,18.20
2022-12-01T05:29:14.199Z,18.45
2022-12-01T05:31:42.982Z,18.58
2022-12-01T05:34:10.965Z,17.98
2022-12-01T05:36:38.793Z,19.55
2022-12-01T05:39:06.646Z,20.88
2022-12-01T05:41:34.591Z,19.27
2022-12-01T05:44:03.839Z,19.45
2022-12-01T05:46:31.945Z,20.25
2022-12-01T05:48:59.813Z,18.23
2022-12-01T05:51:27.649Z,16.63
2022-12-01T05:53:55.486Z,19.33
2022-12-01T05:56:23.329Z,19.83
2022-12-01T05:58:51.169Z,18.20
2022-12-01T06:01:20.513Z,18.50
2022-12-01T06:03:48.432Z,20.73
2022-12-01T06:06:16.380Z,17.40
2022-12-01T06:08:44.209Z,17.45
2022-12-01T06:11:12.261Z,16.98
2022-12-01T06:13:40.297Z,17.40
2022-12-01T06:16:09.245Z,16.80
2022-12-01T06:18:39.434Z,16.70
2022-12-01T06:21:07.926Z,17.10
2022-12-01T06:23:35.991Z,18.92
2022-12-01T06:26:04.355Z,17.13
2022-12-01T06:28:32.309Z,17.38
2022-12-01T06:31:03.518Z,18.42
2022-12-01T06:33:32.131Z,16.30
2022-12-01T06:36:02.582Z,17.20
2022-12-01T06:38:32.225Z,16.65
2022-12-01T06:41:00.455Z,16.35
2022-12-01T06:43:28.558Z,17.65
2022-12-01T06:46:01.264Z,15.57
2022-12-01T06:48:29.913Z,16.80
2022-12-01T06:50:58.270Z,15.55
2022-12-01T06:53:28.467Z,15.52
2022-12-01T06:56:00.089Z,15.95
2022-12-01T06:58:28.266Z,15.13
2022-12-01T07:00:57.353Z,15.70
2022-12-01T07:03:25.749Z,14.50
2022-12-01T07:05:58.590Z,16.67
2022-12-01T07:08:28.785Z,14.80
2022-12-01T07:11:00.760Z,14.68
2022-12-01T07:13:33.361Z,14.13
2022-12-01T07:16:02.996Z,13.90
2022-12-01T07:18:31.371Z,15.73
2022-12-01T07:21:01.104Z,15.95
2022-12-01T07:23:30.397Z,15.52
2022-12-01T07:26:01.839Z,15.43
2022-12-01T07:28:29.974Z,14.77
2022-12-01T07:31:03.191Z,16.13
2022-12-01T07:33:31.241Z,14.35
2022-12-01T07:35:59.301Z,16.25
2022-12-01T07:38:30.504Z,17.15
2022-12-01T07:41:03.343Z,16.20
2022-12-01T07:43:32.016Z,14.98
2022-12-01T07:46:05.500Z,16.30
2022-12-01T07:48:33.675Z,16.67
2022-12-01T07:51:01.704Z,17.42
2022-12-01T07:53:31.032Z,16.85
2022-12-01T07:55:58.925Z,18.92
2022-12-01T07:58:26.805Z,16.98
2022-12-01T08:00:54.680Z,18.25
2022-12-01T08:03:22.739Z,17.63
2022-12-01T08:05:57.198Z,14.05
2022-12-01T08:08:25.720Z,16.90
2022-12-01T08:10:55.249Z,18.10
2022-12-01T08:13:24.202Z,17.52
2022-12-01T08:15:52.080Z,17.98
2022-12-01T08:18:20.030Z,18.85
2022-12-01T08:20:47.889Z,18.40
2022-12-01T08:23:16.014Z,17.75
2022-12-01T08:25:43.857Z,17.92
2022-12-01T08:28:13.266Z,16.45
2022-12-01T08:30:41.213Z,16.63
2022-12-01T08:33:09.097Z,18.60
2022-12-01T08:35:37.429Z,17.52
2022-12-01T08:38:05.426Z,19.35
2022-12-01T08:40:33.271Z,20.00
2022-12-01T08:43:01.147Z,20.27
2022-12-01T08:45:30.336Z,19.35
2022-12-01T08:47:59.033Z,20.00
2022-12-01T08:50:27.442Z,19.08
2022-12-01T08:52:55.412Z,19.25
2022-12-01T08:55:23.410Z,20.02
2022-12-01T08:57:51.242Z,19.27
2022-12-01T09:00:19.643Z,19.35
2022-12-01T09:02:48.949Z,20.13
2022-12-01T09:05:17.062Z,19.52
2022-12-01T09:08:04.983Z,21.48
2022-12-01T09:10:32.965Z,21.90
2022-12-01T09:13:00.756Z,19.77
2022-12-01T09:15:28.629Z,21.83
2022-12-01T09:17:58.018Z,20.05
2022-12-01T09:20:25.842Z,20.85
2022-12-01T09:22:53.665Z,21.30
2022-12-01T09:25:21.517Z,21.80
2022-12-01T09:27:49.323Z,23.08
2022-12-01T09:30:17.472Z,20.38
2022-12-01T09:32:45.317Z,21.88
2022-12-01T09:35:14.645Z,21.20
2022-12-01T09:37:42.591Z,19.63
2022-12-01T09:40:14.344Z,18.13
2022-12-01T09:42:43.164Z,18.70
2022-12-01T09:45:26.831Z,18.98
2022-12-01T09:47:55.494Z,17.58
2022-12-01T09:50:25.839Z,20.15
2022-12-01T09:52:57.066Z,19.90
2022-12-01T09:55:26.165Z,20.50
2022-12-01T09:57:55.609Z,18.92
2022-12-01T10:00:25.387Z,20.60
2022-12-01T10:02:55.576Z,18.02
2022-12-01T10:05:28.532Z,20.80
2022-12-01T10:10:28.325Z,19.33
2022-12-01T10:12:56.154Z,16.65
2022-12-01T10:15:32.088Z,16.00
2022-12-01T10:18:07.435Z,18.48
2022-12-01T10:20:42.494Z,19.55
2022-12-01T10:23:30.881Z,18.73
2022-12-01T10:26:00.555Z,19.05
2022-12-01T10:28:47.011Z,18.58
2022-12-01T10:31:20.134Z,18.40
2022-12-01T10:33:59.606Z,18.60
2022-12-01T10:36:29.575Z,18.27
2022-12-01T10:38:57.525Z,18.15
2022-12-01T10:41:27.089Z,19.95
2022-12-01T10:43:59.462Z,18.85
2022-12-01T10:46:30.552Z,17.40
2022-12-01T10:48:59.488Z,18.67
2022-12-01T10:51:29.240Z,19.63
2022-12-01T10:54:01.439Z,20.50
2022-12-01T10:56:29.486Z,19.08
2022-12-01T10:58:58.688Z,19.25
2022-12-01T11:01:28.052Z,18.25
2022-12-01T11:03:57.947Z,19.27
2022-12-01T11:06:29.338Z,19.35
2022-12-01T11:08:58.950Z,17.80
2022-12-01T11:11:32.831Z,17.42
2022-12-01T11:14:03.448Z,18.17
2022-12-01T11:16:50.019Z,17.02
2022-12-01T11:19:26.991Z,18.38
2022-12-01T11:21:58.467Z,18.65
2022-12-01T11:24:32.131Z,18.35
2022-12-01T11:27:00.373Z,18.58
2022-12-01T11:29:32.942Z,17.52
2022-12-01T11:32:02.061Z,17.67
2022-12-01T11:34:31.861Z,20.48
2022-12-01T11:37:02.812Z,18.67
2022-12-01T11:39:32.909Z,18.33
2022-12-01T11:42:02.347Z,19.30
2022-12-01T11:47:23.612Z,19.02
2022-12-01T11:49:57.632Z,17.52
2022-12-01T11:52:31.151Z,18.42
2022-12-01T11:55:06.958Z,17.83
2022-12-01T11:57:38.835Z,19.10
2022-12-01T12:00:14.421Z,19.63
2022-12-01T12:02:49.056Z,20.40
2022-12-01T12:05:42.682Z,18.05
2022-12-01T12:08:17.667Z,18.83
2022-12-01T12:10:50.780Z,19.52
2022-12-01T12:16:08.360Z,18.40
2022-12-01T12:18:56.073Z,18.17
2022-12-01T12:21:32.168Z,20.17
2022-12-01T12:24:18.661Z,20.17
2022-12-01T12:26:56.354Z,20.75
2022-12-01T12:29:35.169Z,21.58
2022-12-01T12:32:14.431Z,18.17
2022-12-01T12:34:50.056Z,21.48
2022-12-01T12:37:24.789Z,20.38
2022-12-01T12:40:06.108Z,20.55
2022-12-01T12:42:43.111Z,19.92
2022-12-01T12:45:18.394Z,19.80
2022-12-01T12:47:56.566Z,21.35
2022-12-01T12:50:30.044Z,20.45
2022-12-01T12:52:59.973Z,20.27
2022-12-01T12:55:32.096Z,18.92
2022-12-01T12:58:09.494Z,22.55
2022-12-01T13:00:43.459Z,21.75
2022-12-01T13:03:16.593Z,22.77
2022-12-01T13:05:49.257Z,21.15
2022-12-01T13:08:21.585Z,20.00
2022-12-01T13:10:55.435Z,22.13
2022-12-01T13:13:27.308Z,21.95
2022-12-01T13:15:56.407Z,22.52
2022-12-01T13:18:30.052Z,21.60
2022-12-01T13:20:59.188Z,21.58
2022-12-01T13:23:27.360Z,18.40
2022-12-01T13:25:59.006Z,21.90
2022-12-01T13:28:29.142Z,22.35
2022-12-01T13:31:02.379Z,21.58
2022-12-01T13:33:30.789Z,23.05
2022-12-01T13:36:29.955Z,21.20
2022-12-01T13:38:57.312Z,20.15
2022-12-01T13:41:28.989Z,23.30
2022-12-01T13:44:02.964Z,23.02
2022-12-01T13:46:34.359Z,22.15
2022-12-01T13:49:03.213Z,21.45
2022-12-01T13:52:15.982Z,22.90
2022-12-01T13:55:02.434Z,22.05
2022-12-01T13:57:32.858Z,22.48
2022-12-01T14:00:22.292Z,21.50
2022-12-01T14:03:23.338Z,20.13
2022-12-01T14:05:57.080Z,21.83
2022-12-01T14:08:26.334Z,21.38
2022-12-01T14:10:56.470Z,21.63
2022-12-01T14:13:26.732Z,21.95
2022-12-01T14:15:56.623Z,21.70
2022-12-01T14:18:34.380Z,22.20
2022-12-01T14:21:04.495Z,20.85
2022-12-01T14:23:34.280Z,21.92
2022-12-01T14:26:13.434Z,21.55
2022-12-01T14:29:21.202Z,22.00
2022-12-01T14:32:24.016Z,19.58
2022-12-01T14:34:54.108Z,19.85
2022-12-01T14:37:23.586Z,22.92
2022-12-01T14:39:56.227Z,19.60
2022-12-01T14:42:48.577Z,20.33
2022-12-01T14:45:20.451Z,22.25
2022-12-01T14:47:53.979Z,21.67
2022-12-01T14:50:25.126Z,21.63
2022-12-01T14:52:55.612Z,20.98
2022-12-01T14:55:27.433Z,23.10
2022-12-01T14:58:04.339Z,17.63
2022-12-01T15:00:32.885Z,19.60
2022-12-01T15:03:05.491Z,20.33
2022-12-01T15:05:39.301Z,19.70
2022-12-01T15:08:40.332Z,20.88
2022-12-01T15:11:11.095Z,21.73
2022-12-01T15:13:49.342Z,20.88
2022-12-01T15:16:19.472Z,20.20
2022-12-01T15:18:50.859Z,20.85
2022-12-01T15:21:21.248Z,19.73
2022-12-01T15:24:00.312Z,21.15
2022-12-01T15:26:31.211Z,20.27
2022-12-01T15:29:15.463Z,19.88
2022-12-01T15:31:43.902Z,21.05
2022-12-01T15:34:16.695Z,21.75
2022-12-01T15:36:44.972Z,21.30
2022-12-01T15:39:15.336Z,20.67
2022-12-01T15:41:44.506Z,18.77
2022-12-01T15:44:20.616Z,20.25
2022-12-01T15:46:48.522Z,21.35
2022-12-01T15:49:22.051Z,18.90
2022-12-01T15:51:50.407Z,21.52
2022-12-01T15:54:21.767Z,20.77
2022-12-01T15:56:53.104Z,21.80
2022-12-01T15:59:27.452Z,21.55
2022-12-01T16:01:56.759Z,19.95
2022-12-01T16:04:28.430Z,21.25
2022-12-01T16:06:59.237Z,21.58
2022-12-01T16:09:30.851Z,21.50
2022-12-01T16:12:20.987Z,22.23
2022-12-01T16:14:55.250Z,20.38
2022-12-01T16:17:23.619Z,20.50
2022-12-01T16:20:17.855Z,22.33
2022-12-01T16:22:46.784Z,21.08
2022-12-01T16:25:19.132Z,21.05
2022-12-01T16:27:52.679Z,20.55
2022-12-01T16:30:22.545Z,19.35
2022-12-01T16:32:50.397Z,20.10
2022-12-01T16:35:26.433Z,22.05
2022-12-01T16:37:54.426Z,21.63
2022-12-01T16:40:22.256Z,20.65
2022-12-01T16:42:50.526Z,19.10
2022-12-01T16:45:19.325Z,20.33
2022-12-01T16:47:49.226Z,18.95
2022-12-01T16:50:18.499Z,19.90
2022-12-01T16:52:50.276Z,19.25
2022-12-01T16:55:26.916Z,19.55
2022-12-01T16:57:55.414Z,18.20
2022-12-01T17:00:23.558Z,18.83
2022-12-01T17:02:52.773Z,18.58
2022-12-01T17:05:21.000Z,19.33
2022-12-01T17:07:50.306Z,19.60
2022-12-01T17:10:18.696Z,17.85
2022-12-01T17:12:46.553Z,17.88
2022-12-01T17:15:14.615Z,19.27
2022-12-01T17:17:43.222Z,20.95
2022-12-01T17:20:12.073Z,19.27
2022-12-01T17:22:39.945Z,20.65
2022-12-01T17:25:10.585Z,21.85
2022-12-01T17:27:39.206Z,20.10
2022-12-01T17:30:08.353Z,19.17
2022-12-01T17:32:36.273Z,19.98
2022-12-01T17:35:04.352Z,20.88
2022-12-01T17:37:32.199Z,21.45
2022-12-01T17:40:00.099Z,19.23
2022-12-01T17:42:31.720Z,19.20
2022-12-01T17:44:59.632Z,20.73
2022-12-01T17:47:27.830Z,20.33
2022-12-01T17:49:55.759Z,18.92
2022-12-01T17:52:28.201Z,17.60
2022-12-01T17:54:56.869Z,20.00
2022-12-01T17:57:24.795Z,21.10
2022-12-01T17:59:53.993Z,20.25
2022-12-01T18:02:22.002Z,19.70
2022-12-01T18:04:50.354Z,18.92
2022-12-01T18:07:18.482Z,21.15
2022-12-01T18:09:46.371Z,20.13
2022-12-01T18:12:14.217Z,18.25
2022-12-01T18:14:42.193Z,19.70
2022-12-01T18:17:11.432Z,20.80
2022-12-01T18:19:40.458Z,18.08
2022-12-01T18:22:08.873Z,20.00
2022-12-01T18:24:36.784Z,19.80
2022-12-01T18:27:05.262Z,18.88
2022-12-01T18:29:34.773Z,18.92
2022-12-01T18:32:03.114Z,19.08
2022-12-01T18:34:32.355Z,19.27
2022-12-01T18:37:02.142Z,18.45
2022-12-01T18:39:30.191Z,19.10
2022-12-01T18:41:58.075Z,18.88
2022-12-01T18:44:26.049Z,19.88
2022-12-01T18:46:54.043Z,21.23
2022-12-01T18:49:21.978Z,20.08
2022-12-01T18:51:51.258Z,20.05
2022-12-01T18:54:19.099Z,17.70
2022-12-01T18:56:47.851Z,19.40
2022-12-01T18:59:17.200Z,18.33
2022-12-01T19:01:46.607Z,20.25
2022-12-01T19:04:16.153Z,20.08
2022-12-01T19:06:45.524Z,20.40
2022-12-01T19:09:17.545Z,20.73
2022-12-01T19:11:46.007Z,18.77
2022-12-01T19:14:16.738Z,19.58
2022-12-01T19:16:46.297Z,20.42
2022-12-01T19:19:14.297Z,20.55
2022-12-01T19:21:45.127Z,21.17
2022-12-01T19:24:14.423Z,20.58
2022-12-01T19:26:42.791Z,19.65
2022-12-01T19:29:11.316Z,21.45
2022-12-01T19:31:39.411Z,21.88
2022-12-01T19:34:07.950Z,20.10
2022-12-01T19:36:35.810Z,20.70
2022-12-01T19:39:06.035Z,22.60
2022-12-01T19:41:39.115Z,22.13
2022-12-01T19:44:07.078Z,21.35
2022-12-01T19:46:35.140Z,20.23
2022-12-01T19:49:03.839Z,19.45
2022-12-01T19:51:35.557Z,19.35
2022-12-01T19:54:04.570Z,20.08
2022-12-01T19:56:32.548Z,22.65
2022-12-01T19:59:01.782Z,21.30
2022-12-01T20:01:29.983Z,22.17
2022-12-01T20:03:57.987Z,22.73
2022-12-01T20:06:27.977Z,21.27
2022-12-01T20:08:58.382Z,21.45
2022-12-01T20:11:26.713Z,21.02
2022-12-01T20:13:54.858Z,19.65
2022-12-01T20:16:25.307Z,22.38
2022-12-01T20:18:54.321Z,20.13
2022-12-01T20:21:24.364Z,20.10
2022-12-01T20:23:57.860Z,20.42
2022-12-01T20:26:30.565Z,20.23
2022-12-01T20:29:01.558Z,20.02
2022-12-01T20:31:32.533Z,22.23
2022-12-01T20:34:03.547Z,20.05
2022-12-01T20:36:31.524Z,19.92
2022-12-01T20:38:59.535Z,22.42
2022-12-01T20:41:27.929Z,19.80
2022-12-01T20:43:56.306Z,20.98
2022-12-01T20:46:25.739Z,21.15
2022-12-01T20:48:55.086Z,21.38
2022-12-01T20:51:23.144Z,22.23
2022-12-01T20:54:19.713Z,20.50
2022-12-01T20:56:39.301Z,21.15
2022-12-01T20:59:07.228Z,20.58
2022-12-01T21:01:35.070Z,21.10
2022-12-01T21:04:06.169Z,21.77
2022-12-01T21:06:34.133Z,20.33
2022-12-01T21:09:03.106Z,20.08
2022-12-01T21:11:51.187Z,20.50
2022-12-01T21:14:20.936Z,20.45
2022-12-01T21:16:50.115Z,20.15
2022-12-01T21:19:23.932Z,20.80
2022-12-01T21:21:51.739Z,20.38
2022-12-01T21:24:22.133Z,20.55
2022-12-01T21:26:51.283Z,21.38
2022-12-01T21:29:21.515Z,19.80
2022-12-01T21:31:50.877Z,20.95
2022-12-01T21:34:23.883Z,20.55
2022-12-01T21:39:21.712Z,20.60
2022-12-01T21:41:50.443Z,20.40
2022-12-01T21:44:19.728Z,20.67
2022-12-01T21:46:48.557Z,20.63
2022-12-01T21:49:20.533Z,21.33
2022-12-01T21:51:49.346Z,21.30
2022-12-01T21:54:20.301Z,20.10
2022-12-01T21:56:49.129Z,21.52
2022-12-01T21:59:21.687Z,22.33
2022-12-01T22:01:52.654Z,21.20
2022-12-01T22:04:23.158Z,21.20
2022-12-01T22:06:53.190Z,20.73
2022-12-01T22:09:24.705Z,20.80
2022-12-01T22:11:54.857Z,21.58
2022-12-01T22:14:24.597Z,20.52
2022-12-01T22:16:57.864Z,21.67
2022-12-01T22:19:30.091Z,20.60
2022-12-01T22:22:03.035Z,21.13
2022-12-01T22:24:35.898Z,19.33
2022-12-01T22:27:29.090Z,21.58
2022-12-01T22:29:59.280Z,22.02
2022-12-01T22:32:39.071Z,19.52
2022-12-01T22:35:29.383Z,20.13
2022-12-01T22:38:02.158Z,20.42
2022-12-01T22:40:34.882Z,21.30
2022-12-01T22:43:20.572Z,20.95
2022-12-01T22:45:50.799Z,19.85
2022-12-01T22:48:27.859Z,19.63
2022-12-01T22:51:00.183Z,20.40
2022-12-01T22:53:30.984Z,19.35
2022-12-01T22:56:01.480Z,19.98
2022-12-01T22:58:32.045Z,19.95
2022-12-01T23:01:02.726Z,19.23
2022-12-01T23:03:31.435Z,17.90
2022-12-01T23:06:03.261Z,20.65
2022-12-01T23:08:34.397Z,19.45
2022-12-01T23:11:07.812Z,21.02
2022-12-01T23:13:43.866Z,19.98
2022-12-01T23:16:12.924Z,21.00
2022-12-01T23:18:41.087Z,20.38
2022-12-01T23:21:10.479Z,18.73
2022-12-01T23:23:38.792Z,21.10
2022-12-01T23:26:08.579Z,20.05
2022-12-01T23:28:37.459Z,19.98
2022-12-01T23:31:05.528Z,20.80
2022-12-01T23:33:33.765Z,21.20
2022-12-01T23:36:04.021Z,21.45
2022-12-01T23:38:38.685Z,18.85
2022-12-01T23:41:08.022Z,20.40
2022-12-01T23:43:39.034Z,20.80
2022-12-01T23:46:10.367Z,19.55
2022-12-01T23:48:40.810Z,18.67
2022-12-01T23:51:15.593Z,18.98
2022-12-01T23:53:44.879Z,20.27
2022-12-01T23:56:16.810Z,20.73
2022-12-01T23:58:45.109Z,20.02
